sensor_id;sensor_type;location;lat;lon;timestamp;P1;durP1;ratioP1;P2;durP2;ratioP2
4961;SDS011;2496;52.468;13.342;2023-04-21T00:01:59;27.20;;;8.93;;
4961;SDS011;2496;52.468;13.342;2023-04-21T00:04:26;19.33;;;7.70;;
4961;SDS011;2496;52.468;13.342;2023-04-21T00:06:53;25.93;;;7.50;;
4961;SDS011;2496;52.468;13.342;2023-04-21T00:09:22;19.80;;;7.67;;
4961;SDS011;2496;52.468;13.342;2023-04-21T00:11:49;13.63;;;7.47;;
4961;SDS011;2496;52.468;13.342;2023-04-21T00:14:16;16.03;;;8.40;;
4961;SDS011;2496;52.468;13.342;2023-04-21T00:16:43;24.20;;;8.43;;
4961;SDS011;2496;52.468;13.342;2023-04-21T00:19:10;17.27;;;8.43;;
4961;SDS011;2496;52.468;13.342;2023-04-21T00:21:38;17.43;;;8.23;;
4961;SDS011;2496;52.468;13.342;2023-04-21T00:24:06;16.20;;;7.27;;
4961;SDS011;2496;52.468;13.342;2023-04-21T00:26:35;19.77;;;7.80;;
4961;SDS011;2496;52.468;13.342;2023-04-21T00:29:03;12.20;;;7.63;;
4961;SDS011;2496;52.468;13.342;2023-04-21T00:31:30;17.70;;;7.73;;
4961;SDS011;2496;52.468;13.342;2023-04-21T00:33:57;18.53;;;9.00;;
4961;SDS011;2496;52.468;13.342;2023-04-21T00:36:24;14.47;;;7.60;;
4961;SDS011;2496;52.468;13.342;2023-04-21T00:38:52;15.90;;;7.77;;
4961;SDS011;2496;52.468;13.342;2023-04-21T00:41:20;14.23;;;7.90;;
4961;SDS011;2496;52.468;13.342;2023-04-21T00:44:01;15.53;;;8.37;;
4961;SDS011;2496;52.468;13.342;2023-04-21T00:46:29;12.87;;;8.23;;
4961;SDS011;2496;52.468;13.342;2023-04-21T00:48:57;11.73;;;7.33;;
4961;SDS011;2496;52.468;13.342;2023-04-21T00:51:25;14.67;;;8.20;;
4961;SDS011;2496;52.468;13.342;2023-04-21T00:53:53;13.30;;;7.67;;
4961;SDS011;2496;52.468;13.342;2023-04-21T00:56:21;16.07;;;7.00;;
4961;SDS011;2496;52.468;13.342;2023-04-21T00:58:49;16.67;;;7.87;;
4961;SDS011;2496;52.468;13.342;2023-04-21T01:01:18;13.70;;;8.23;;
4961;SDS011;2496;52.468;13.342;2023-04-21T01:03:46;12.60;;;8.70;;
4961;SDS011;2496;52.468;13.342;2023-04-21T01:06:14;16.60;;;8.67;;
4961;SDS011;2496;52.468;13.342;2023-04-21T01:08:41;14.83;;;8.43;;
4961;SDS011;2496;52.468;13.342;2023-04-21T01:11:11;16.10;;;8.00;;
4961;SDS011;2496;52.468;13.342;2023-04-21T01:13:39;18.13;;;7.90;;
4961;SDS011;2496;52.468;13.342;2023-04-21T01:16:06;17.30;;;9.00;;
4961;SDS011;2496;52.468;13.342;2023-04-21T01:18:35;11.27;;;8.00;;
4961;SDS011;2496;52.468;13.342;2023-04-21T01:21:02;16.33;;;8.37;;
4961;SDS011;2496;52.468;13.342;2023-04-21T01:23:33;18.00;;;8.70;;
4961;SDS011;2496;52.468;13.342;2023-04-21T01:26:00;15.87;;;8.10;;
4961;SDS011;2496;52.468;13.342;2023-04-21T01:28:27;13.23;;;8.87;;
4961;SDS011;2496;52.468;13.342;2023-04-21T01:30:54;15.13;;;8.87;;
4961;SDS011;2496;52.468;13.342;2023-04-21T01:33:22;17.00;;;9.70;;
4961;SDS011;2496;52.468;13.342;2023-04-21T01:35:49;17.13;;;10.30;;
4961;SDS011;2496;52.468;13.342;2023-04-21T01:38:16;18.07;;;9.53;;
4961;SDS011;2496;52.468;13.342;2023-04-21T01:40:46;17.10;;;9.87;;
4961;SDS011;2496;52.468;13.342;2023-04-21T01:43:14;13.50;;;9.80;;
4961;SDS011;2496;52.468;13.342;2023-04-21T01:45:43;16.53;;;9.97;;
4961;SDS011;2496;52.468;13.342;2023-04-21T01:48:10;19.73;;;10.00;;
4961;SDS011;2496;52.468;13.342;2023-04-21T01:50:38;17.30;;;10.30;;
4961;SDS011;2496;52.468;13.342;2023-04-21T01:53:05;15.40;;;9.70;;
4961;SDS011;2496;52.468;13.342;2023-04-21T01:55:32;15.80;;;10.17;;
4961;SDS011;2496;52.468;13.342;2023-04-21T01:58:01;18.97;;;9.83;;
4961;SDS011;2496;52.468;13.342;2023-04-21T02:00:28;17.80;;;9.80;;
4961;SDS011;2496;52.468;13.342;2023-04-21T02:02:56;19.60;;;10.40;;
4961;SDS011;2496;52.468;13.342;2023-04-21T02:05:23;20.23;;;11.90;;
4961;SDS011;2496;52.468;13.342;2023-04-21T02:07:51;15.07;;;10.50;;
4961;SDS011;2496;52.468;13.342;2023-04-21T02:10:18;18.10;;;12.13;;
4961;SDS011;2496;52.468;13.342;2023-04-21T02:12:45;26.97;;;15.00;;
4961;SDS011;2496;52.468;13.342;2023-04-21T02:15:14;24.63;;;14.00;;
4961;SDS011;2496;52.468;13.342;2023-04-21T02:17:41;26.73;;;16.80;;
4961;SDS011;2496;52.468;13.342;2023-04-21T02:20:09;28.43;;;18.17;;
4961;SDS011;2496;52.468;13.342;2023-04-21T02:22:37;31.23;;;20.60;;
4961;SDS011;2496;52.468;13.342;2023-04-21T02:25:05;34.90;;;21.20;;
4961;SDS011;2496;52.468;13.342;2023-04-21T02:27:33;42.17;;;22.10;;
4961;SDS011;2496;52.468;13.342;2023-04-21T02:30:00;39.17;;;21.30;;
4961;SDS011;2496;52.468;13.342;2023-04-21T02:32:29;39.10;;;22.87;;
4961;SDS011;2496;52.468;13.342;2023-04-21T02:34:56;37.73;;;22.00;;
4961;SDS011;2496;52.468;13.342;2023-04-21T02:37:24;42.63;;;22.80;;
4961;SDS011;2496;52.468;13.342;2023-04-21T02:39:51;44.17;;;22.17;;
4961;SDS011;2496;52.468;13.342;2023-04-21T02:42:19;32.47;;;20.07;;
4961;SDS011;2496;52.468;13.342;2023-04-21T02:44:46;29.73;;;17.50;;
4961;SDS011;2496;52.468;13.342;2023-04-21T02:47:13;25.40;;;15.80;;
4961;SDS011;2496;52.468;13.342;2023-04-21T02:49:43;24.03;;;13.93;;
4961;SDS011;2496;52.468;13.342;2023-04-21T02:52:10;24.77;;;13.50;;
4961;SDS011;2496;52.468;13.342;2023-04-21T02:54:37;16.33;;;10.73;;
4961;SDS011;2496;52.468;13.342;2023-04-21T02:57:05;18.37;;;10.60;;
4961;SDS011;2496;52.468;13.342;2023-04-21T02:59:32;20.37;;;11.93;;
4961;SDS011;2496;52.468;13.342;2023-04-21T03:01:59;24.53;;;12.00;;
4961;SDS011;2496;52.468;13.342;2023-04-21T03:04:26;19.10;;;11.20;;
4961;SDS011;2496;52.468;13.342;2023-04-21T03:06:55;21.77;;;11.00;;
4961;SDS011;2496;52.468;13.342;2023-04-21T03:09:23;18.60;;;11.40;;
4961;SDS011;2496;52.468;13.342;2023-04-21T03:11:50;17.90;;;11.07;;
4961;SDS011;2496;52.468;13.342;2023-04-21T03:14:17;15.60;;;10.30;;
4961;SDS011;2496;52.468;13.342;2023-04-21T03:16:44;14.60;;;10.43;;
4961;SDS011;2496;52.468;13.342;2023-04-21T03:19:14;14.20;;;10.10;;
4961;SDS011;2496;52.468;13.342;2023-04-21T03:21:41;21.03;;;10.87;;
4961;SDS011;2496;52.468;13.342;2023-04-21T03:24:10;16.30;;;11.07;;
4961;SDS011;2496;52.468;13.342;2023-04-21T03:26:37;20.50;;;11.43;;
4961;SDS011;2496;52.468;13.342;2023-04-21T03:29:05;17.23;;;11.20;;
4961;SDS011;2496;52.468;13.342;2023-04-21T03:31:32;18.50;;;10.70;;
4961;SDS011;2496;52.468;13.342;2023-04-21T03:33:59;20.63;;;11.40;;
4961;SDS011;2496;52.468;13.342;2023-04-21T03:36:25;17.40;;;10.43;;
4961;SDS011;2496;52.468;13.342;2023-04-21T03:38:52;15.93;;;10.40;;
4961;SDS011;2496;52.468;13.342;2023-04-21T03:41:21;17.70;;;11.00;;
4961;SDS011;2496;52.468;13.342;2023-04-21T03:43:49;16.17;;;10.60;;
4961;SDS011;2496;52.468;13.342;2023-04-21T03:46:17;15.83;;;11.47;;
4961;SDS011;2496;52.468;13.342;2023-04-21T03:48:44;20.60;;;10.80;;
4961;SDS011;2496;52.468;13.342;2023-04-21T03:51:12;24.03;;;10.33;;
4961;SDS011;2496;52.468;13.342;2023-04-21T03:53:40;18.50;;;10.53;;
4961;SDS011;2496;52.468;13.342;2023-04-21T03:56:07;16.80;;;11.27;;
4961;SDS011;2496;52.468;13.342;2023-04-21T03:58:36;31.30;;;11.93;;
4961;SDS011;2496;52.468;13.342;2023-04-21T04:01:04;18.70;;;10.10;;
4961;SDS011;2496;52.468;13.342;2023-04-21T04:03:31;21.37;;;11.70;;
4961;SDS011;2496;52.468;13.342;2023-04-21T04:05:58;17.83;;;11.60;;
4961;SDS011;2496;52.468;13.342;2023-04-21T04:08:28;19.10;;;10.30;;
4961;SDS011;2496;52.468;13.342;2023-04-21T04:10:55;17.60;;;11.57;;
4961;SDS011;2496;52.468;13.342;2023-04-21T04:13:22;22.80;;;11.60;;
4961;SDS011;2496;52.468;13.342;2023-04-21T04:15:52;19.87;;;10.27;;
4961;SDS011;2496;52.468;13.342;2023-04-21T04:18:19;19.33;;;11.70;;
4961;SDS011;2496;52.468;13.342;2023-04-21T04:20:46;15.20;;;10.60;;
4961;SDS011;2496;52.468;13.342;2023-04-21T04:23:14;21.93;;;12.37;;
4961;SDS011;2496;52.468;13.342;2023-04-21T04:25:41;25.43;;;12.53;;
4961;SDS011;2496;52.468;13.342;2023-04-21T04:28:09;22.60;;;11.17;;
4961;SDS011;2496;52.468;13.342;2023-04-21T04:30:36;19.03;;;10.67;;
4961;SDS011;2496;52.468;13.342;2023-04-21T04:33:05;21.57;;;11.77;;
4961;SDS011;2496;52.468;13.342;2023-04-21T04:35:34;21.37;;;11.80;;
4961;SDS011;2496;52.468;13.342;2023-04-21T04:38:01;22.10;;;11.90;;
4961;SDS011;2496;52.468;13.342;2023-04-21T04:40:28;22.67;;;12.10;;
4961;SDS011;2496;52.468;13.342;2023-04-21T04:42:57;20.70;;;11.37;;
4961;SDS011;2496;52.468;13.342;2023-04-21T04:45:25;22.13;;;12.33;;
4961;SDS011;2496;52.468;13.342;2023-04-21T04:47:56;18.93;;;11.20;;
4961;SDS011;2496;52.468;13.342;2023-04-21T04:50:24;17.30;;;11.90;;
4961;SDS011;2496;52.468;13.342;2023-04-21T04:52:52;23.53;;;12.17;;
4961;SDS011;2496;52.468;13.342;2023-04-21T04:55:20;31.90;;;10.90;;
4961;SDS011;2496;52.468;13.342;2023-04-21T04:57:47;18.67;;;12.00;;
4961;SDS011;2496;52.468;13.342;2023-04-21T05:00:15;18.87;;;12.03;;
4961;SDS011;2496;52.468;13.342;2023-04-21T05:02:42;21.13;;;12.27;;
4961;SDS011;2496;52.468;13.342;2023-04-21T05:05:09;16.47;;;11.40;;
4961;SDS011;2496;52.468;13.342;2023-04-21T05:07:38;16.00;;;10.70;;
4961;SDS011;2496;52.468;13.342;2023-04-21T05:10:06;21.80;;;10.97;;
4961;SDS011;2496;52.468;13.342;2023-04-21T05:12:33;17.77;;;11.10;;
4961;SDS011;2496;52.468;13.342;2023-04-21T05:15:01;18.33;;;10.43;;
4961;SDS011;2496;52.468;13.342;2023-04-21T05:17:28;20.90;;;11.53;;
4961;SDS011;2496;52.468;13.342;2023-04-21T05:19:56;20.17;;;12.10;;
4961;SDS011;2496;52.468;13.342;2023-04-21T05:22:23;17.57;;;10.73;;
4961;SDS011;2496;52.468;13.342;2023-04-21T05:24:52;16.40;;;11.20;;
4961;SDS011;2496;52.468;13.342;2023-04-21T05:27:19;17.63;;;11.30;;
4961;SDS011;2496;52.468;13.342;2023-04-21T05:29:47;25.43;;;11.33;;
4961;SDS011;2496;52.468;13.342;2023-04-21T05:32:15;17.80;;;12.53;;
4961;SDS011;2496;52.468;13.342;2023-04-21T05:34:42;18.73;;;11.83;;
4961;SDS011;2496;52.468;13.342;2023-04-21T05:37:09;20.57;;;12.47;;
4961;SDS011;2496;52.468;13.342;2023-04-21T05:39:37;16.40;;;11.60;;
4961;SDS011;2496;52.468;13.342;2023-04-21T05:42:08;15.97;;;11.80;;
4961;SDS011;2496;52.468;13.342;2023-04-21T05:44:36;21.23;;;12.50;;
4961;SDS011;2496;52.468;13.342;2023-04-21T05:47:03;25.20;;;11.93;;
4961;SDS011;2496;52.468;13.342;2023-04-21T05:49:30;18.30;;;11.73;;
4961;SDS011;2496;52.468;13.342;2023-04-21T05:51:57;16.20;;;11.33;;
4961;SDS011;2496;52.468;13.342;2023-04-21T05:54:24;17.97;;;11.93;;
4961;SDS011;2496;52.468;13.342;2023-04-21T05:56:51;19.37;;;12.93;;
4961;SDS011;2496;52.468;13.342;2023-04-21T05:59:19;18.10;;;12.43;;
4961;SDS011;2496;52.468;13.342;2023-04-21T06:01:46;17.37;;;11.50;;
4961;SDS011;2496;52.468;13.342;2023-04-21T06:04:13;22.10;;;13.10;;
4961;SDS011;2496;52.468;13.342;2023-04-21T06:06:40;19.90;;;12.00;;
4961;SDS011;2496;52.468;13.342;2023-04-21T06:09:08;17.43;;;11.70;;
4961;SDS011;2496;52.468;13.342;2023-04-21T06:11:35;19.63;;;11.50;;
4961;SDS011;2496;52.468;13.342;2023-04-21T06:14:02;18.80;;;12.20;;
4961;SDS011;2496;52.468;13.342;2023-04-21T06:16:30;21.87;;;12.23;;
4961;SDS011;2496;52.468;13.342;2023-04-21T06:18:58;15.60;;;11.97;;
4961;SDS011;2496;52.468;13.342;2023-04-21T06:21:28;17.13;;;11.00;;
4961;SDS011;2496;52.468;13.342;2023-04-21T06:23:55;20.70;;;10.93;;
4961;SDS011;2496;52.468;13.342;2023-04-21T06:26:22;17.13;;;11.97;;
4961;SDS011;2496;52.468;13.342;2023-04-21T06:28:49;14.80;;;10.87;;
4961;SDS011;2496;52.468;13.342;2023-04-21T06:31:16;20.70;;;11.17;;
4961;SDS011;2496;52.468;13.342;2023-04-21T06:33:45;19.90;;;11.93;;
4961;SDS011;2496;52.468;13.342;2023-04-21T06:36:12;19.10;;;12.50;;
4961;SDS011;2496;52.468;13.342;2023-04-21T06:38:39;15.27;;;11.43;;
4961;SDS011;2496;52.468;13.342;2023-04-21T06:41:07;16.90;;;11.20;;
4961;SDS011;2496;52.468;13.342;2023-04-21T06:43:34;13.27;;;10.83;;
4961;SDS011;2496;52.468;13.342;2023-04-21T06:46:01;19.47;;;12.27;;
4961;SDS011;2496;52.468;13.342;2023-04-21T06:48:28;20.80;;;10.40;;
4961;SDS011;2496;52.468;13.342;2023-04-21T06:50:57;19.30;;;10.17;;
4961;SDS011;2496;52.468;13.342;2023-04-21T06:53:24;17.23;;;12.30;;
4961;SDS011;2496;52.468;13.342;2023-04-21T06:55:51;17.17;;;11.77;;
4961;SDS011;2496;52.468;13.342;2023-04-21T06:58:18;17.70;;;11.80;;
4961;SDS011;2496;52.468;13.342;2023-04-21T07:00:45;19.23;;;11.30;;
4961;SDS011;2496;52.468;13.342;2023-04-21T07:03:12;16.60;;;10.57;;
4961;SDS011;2496;52.468;13.342;2023-04-21T07:05:39;19.50;;;11.97;;
4961;SDS011;2496;52.468;13.342;2023-04-21T07:08:08;18.43;;;11.23;;
4961;SDS011;2496;52.468;13.342;2023-04-21T07:10:34;15.03;;;10.50;;
4961;SDS011;2496;52.468;13.342;2023-04-21T07:13:01;22.57;;;11.20;;
4961;SDS011;2496;52.468;13.342;2023-04-21T07:15:28;16.80;;;10.60;;
4961;SDS011;2496;52.468;13.342;2023-04-21T07:17:55;16.43;;;10.87;;
4961;SDS011;2496;52.468;13.342;2023-04-21T07:20:23;15.70;;;11.77;;
4961;SDS011;2496;52.468;13.342;2023-04-21T07:22:50;16.10;;;11.47;;
4961;SDS011;2496;52.468;13.342;2023-04-21T07:25:19;15.43;;;10.50;;
4961;SDS011;2496;52.468;13.342;2023-04-21T07:27:46;14.90;;;10.80;;
4961;SDS011;2496;52.468;13.342;2023-04-21T07:30:13;17.70;;;11.17;;
4961;SDS011;2496;52.468;13.342;2023-04-21T07:32:40;19.73;;;11.33;;
4961;SDS011;2496;52.468;13.342;2023-04-21T07:35:07;20.50;;;10.43;;
4961;SDS011;2496;52.468;13.342;2023-04-21T07:37:35;15.37;;;11.07;;
4961;SDS011;2496;52.468;13.342;2023-04-21T07:40:02;18.40;;;11.27;;
4961;SDS011;2496;52.468;13.342;2023-04-21T07:42:30;13.03;;;10.37;;
4961;SDS011;2496;52.468;13.342;2023-04-21T07:44:57;13.10;;;9.33;;
4961;SDS011;2496;52.468;13.342;2023-04-21T07:47:26;16.47;;;10.50;;
4961;SDS011;2496;52.468;13.342;2023-04-21T07:49:53;16.73;;;11.23;;
4961;SDS011;2496;52.468;13.342;2023-04-21T07:52:20;21.80;;;12.67;;
4961;SDS011;2496;52.468;13.342;2023-04-21T07:54:47;23.23;;;10.93;;
4961;SDS011;2496;52.468;13.342;2023-04-21T07:57:14;15.87;;;11.37;;
4961;SDS011;2496;52.468;13.342;2023-04-21T07:59:43;17.00;;;11.50;;
4961;SDS011;2496;52.468;13.342;2023-04-21T08:02:10;12.87;;;9.97;;
4961;SDS011;2496;52.468;13.342;2023-04-21T08:04:37;15.03;;;11.50;;
4961;SDS011;2496;52.468;13.342;2023-04-21T08:07:04;15.20;;;10.40;;
4961;SDS011;2496;52.468;13.342;2023-04-21T08:09:31;13.07;;;10.23;;
4961;SDS011;2496;52.468;13.342;2023-04-21T08:11:58;15.60;;;11.30;;
4961;SDS011;2496;52.468;13.342;2023-04-21T08:14:26;19.50;;;11.40;;
4961;SDS011;2496;52.468;13.342;2023-04-21T08:16:54;15.60;;;11.67;;
4961;SDS011;2496;52.468;13.342;2023-04-21T08:19:21;14.70;;;10.93;;
4961;SDS011;2496;52.468;13.342;2023-04-21T08:21:48;19.67;;;11.57;;
4961;SDS011;2496;52.468;13.342;2023-04-21T08:24:15;13.40;;;10.23;;
4961;SDS011;2496;52.468;13.342;2023-04-21T08:26:42;17.73;;;10.90;;
4961;SDS011;2496;52.468;13.342;2023-04-21T08:29:09;16.43;;;10.90;;
4961;SDS011;2496;52.468;13.342;2023-04-21T08:31:38;24.13;;;11.17;;
4961;SDS011;2496;52.468;13.342;2023-04-21T08:34:06;14.90;;;10.60;;
4961;SDS011;2496;52.468;13.342;2023-04-21T08:36:33;18.83;;;10.43;;
4961;SDS011;2496;52.468;13.342;2023-04-21T08:39:00;13.60;;;9.87;;
4961;SDS011;2496;52.468;13.342;2023-04-21T08:41:28;18.63;;;11.50;;
4961;SDS011;2496;52.468;13.342;2023-04-21T08:43:55;13.60;;;10.40;;
4961;SDS011;2496;52.468;13.342;2023-04-21T08:46:22;18.00;;;10.37;;
4961;SDS011;2496;52.468;13.342;2023-04-21T08:48:52;13.83;;;10.13;;
4961;SDS011;2496;52.468;13.342;2023-04-21T08:51:21;19.40;;;11.20;;
4961;SDS011;2496;52.468;13.342;2023-04-21T08:53:53;15.50;;;9.93;;
4961;SDS011;2496;52.468;13.342;2023-04-21T08:56:20;14.73;;;10.00;;
4961;SDS011;2496;52.468;13.342;2023-04-21T08:58:47;14.33;;;10.80;;
4961;SDS011;2496;52.468;13.342;2023-04-21T09:01:14;16.70;;;10.60;;
4961;SDS011;2496;52.468;13.342;2023-04-21T09:03:41;15.30;;;10.40;;
4961;SDS011;2496;52.468;13.342;2023-04-21T09:06:08;21.10;;;10.10;;
4961;SDS011;2496;52.468;13.342;2023-04-21T09:08:38;24.83;;;11.07;;
4961;SDS011;2496;52.468;13.342;2023-04-21T09:11:09;15.73;;;9.43;;
4961;SDS011;2496;52.468;13.342;2023-04-21T09:13:40;10.73;;;9.57;;
4961;SDS011;2496;52.468;13.342;2023-04-21T09:16:14;15.00;;;9.67;;
4961;SDS011;2496;52.468;13.342;2023-04-21T09:18:45;16.23;;;9.70;;
4961;SDS011;2496;52.468;13.342;2023-04-21T09:21:12;11.03;;;8.97;;
4961;SDS011;2496;52.468;13.342;2023-04-21T09:23:42;14.57;;;9.90;;
4961;SDS011;2496;52.468;13.342;2023-04-21T09:26:11;17.90;;;9.47;;
4961;SDS011;2496;52.468;13.342;2023-04-21T09:28:40;12.30;;;10.30;;
4961;SDS011;2496;52.468;13.342;2023-04-21T09:31:14;16.53;;;9.40;;
4961;SDS011;2496;52.468;13.342;2023-04-21T09:33:44;17.23;;;10.13;;
4961;SDS011;2496;52.468;13.342;2023-04-21T09:36:16;13.47;;;10.03;;
4961;SDS011;2496;52.468;13.342;2023-04-21T09:38:49;17.43;;;10.37;;
4961;SDS011;2496;52.468;13.342;2023-04-21T09:41:21;14.30;;;8.47;;
4961;SDS011;2496;52.468;13.342;2023-04-21T09:43:49;13.80;;;10.30;;
4961;SDS011;2496;52.468;13.342;2023-04-21T09:46:16;13.80;;;9.90;;
4961;SDS011;2496;52.468;13.342;2023-04-21T09:48:44;16.43;;;9.73;;
4961;SDS011;2496;52.468;13.342;2023-04-21T09:51:12;10.73;;;9.30;;
4961;SDS011;2496;52.468;13.342;2023-04-21T09:53:41;18.70;;;9.63;;
4961;SDS011;2496;52.468;13.342;2023-04-21T09:56:13;13.80;;;9.13;;
4961;SDS011;2496;52.468;13.342;2023-04-21T09:58:43;12.30;;;9.53;;
4961;SDS011;2496;52.468;13.342;2023-04-21T10:01:13;14.27;;;9.03;;
4961;SDS011;2496;52.468;13.342;2023-04-21T10:03:40;10.23;;;8.90;;
4961;SDS011;2496;52.468;13.342;2023-04-21T10:06:10;12.30;;;9.60;;
4961;SDS011;2496;52.468;13.342;2023-04-21T10:08:38;13.30;;;8.63;;
4961;SDS011;2496;52.468;13.342;2023-04-21T10:11:05;11.33;;;8.83;;
4961;SDS011;2496;52.468;13.342;2023-04-21T10:13:35;11.23;;;8.53;;
4961;SDS011;2496;52.468;13.342;2023-04-21T10:16:04;16.13;;;9.40;;
4961;SDS011;2496;52.468;13.342;2023-04-21T10:18:34;19.83;;;9.40;;
4961;SDS011;2496;52.468;13.342;2023-04-21T10:21:04;12.00;;;8.60;;
4961;SDS011;2496;52.468;13.342;2023-04-21T10:23:36;13.67;;;9.57;;
4961;SDS011;2496;52.468;13.342;2023-04-21T10:26:05;16.50;;;9.87;;
4961;SDS011;2496;52.468;13.342;2023-04-21T10:28:42;16.43;;;7.80;;
4961;SDS011;2496;52.468;13.342;2023-04-21T10:31:17;13.80;;;7.80;;
4961;SDS011;2496;52.468;13.342;2023-04-21T10:36:48;10.23;;;9.07;;
4961;SDS011;2496;52.468;13.342;2023-04-21T10:39:35;12.43;;;8.47;;
4961;SDS011;2496;52.468;13.342;2023-04-21T10:42:26;11.97;;;8.30;;
4961;SDS011;2496;52.468;13.342;2023-04-21T10:45:06;13.30;;;8.80;;
4961;SDS011;2496;52.468;13.342;2023-04-21T10:47:35;14.37;;;8.13;;
4961;SDS011;2496;52.468;13.342;2023-04-21T10:50:16;12.00;;;8.50;;
4961;SDS011;2496;52.468;13.342;2023-04-21T10:52:46;11.53;;;8.50;;
4961;SDS011;2496;52.468;13.342;2023-04-21T10:55:18;14.33;;;7.97;;
4961;SDS011;2496;52.468;13.342;2023-04-21T10:57:46;17.47;;;8.10;;
4961;SDS011;2496;52.468;13.342;2023-04-21T11:00:15;11.87;;;7.83;;
4961;SDS011;2496;52.468;13.342;2023-04-21T11:02:44;11.70;;;8.20;;
4961;SDS011;2496;52.468;13.342;2023-04-21T11:05:19;14.40;;;8.63;;
4961;SDS011;2496;52.468;13.342;2023-04-21T11:08:00;10.40;;;7.90;;
4961;SDS011;2496;52.468;13.342;2023-04-21T11:10:40;13.20;;;7.97;;
4961;SDS011;2496;52.468;13.342;2023-04-21T11:13:07;10.50;;;7.20;;
4961;SDS011;2496;52.468;13.342;2023-04-21T11:15:36;9.70;;;7.60;;
4961;SDS011;2496;52.468;13.342;2023-04-21T11:18:04;16.67;;;7.77;;
4961;SDS011;2496;52.468;13.342;2023-04-21T11:20:32;14.60;;;7.47;;
4961;SDS011;2496;52.468;13.342;2023-04-21T11:23:00;10.80;;;8.27;;
4961;SDS011;2496;52.468;13.342;2023-04-21T11:25:27;9.13;;;6.87;;
4961;SDS011;2496;52.468;13.342;2023-04-21T11:27:56;11.03;;;7.10;;
4961;SDS011;2496;52.468;13.342;2023-04-21T11:30:29;9.57;;;7.87;;
4961;SDS011;2496;52.468;13.342;2023-04-21T11:32:59;9.67;;;7.67;;
4961;SDS011;2496;52.468;13.342;2023-04-21T11:35:26;10.60;;;7.63;;
4961;SDS011;2496;52.468;13.342;2023-04-21T11:37:54;13.20;;;8.37;;
4961;SDS011;2496;52.468;13.342;2023-04-21T11:40:21;12.23;;;7.50;;
4961;SDS011;2496;52.468;13.342;2023-04-21T11:42:48;13.43;;;8.03;;
4961;SDS011;2496;52.468;13.342;2023-04-21T11:45:16;9.40;;;8.00;;
4961;SDS011;2496;52.468;13.342;2023-04-21T11:47:43;12.03;;;8.30;;
4961;SDS011;2496;52.468;13.342;2023-04-21T11:50:16;11.87;;;7.70;;
4961;SDS011;2496;52.468;13.342;2023-04-21T11:52:56;16.63;;;8.20;;
4961;SDS011;2496;52.468;13.342;2023-04-21T11:55:23;15.43;;;7.70;;
4961;SDS011;2496;52.468;13.342;2023-04-21T11:57:50;9.57;;;7.60;;
4961;SDS011;2496;52.468;13.342;2023-04-21T12:00:18;9.10;;;8.13;;
4961;SDS011;2496;52.468;13.342;2023-04-21T12:02:52;10.17;;;7.70;;
4961;SDS011;2496;52.468;13.342;2023-04-21T12:05:22;9.00;;;7.20;;
4961;SDS011;2496;52.468;13.342;2023-04-21T12:07:49;13.67;;;8.67;;
4961;SDS011;2496;52.468;13.342;2023-04-21T12:10:17;10.77;;;7.43;;
4961;SDS011;2496;52.468;13.342;2023-04-21T12:12:45;15.03;;;7.83;;
4961;SDS011;2496;52.468;13.342;2023-04-21T12:15:15;15.60;;;8.37;;
4961;SDS011;2496;52.468;13.342;2023-04-21T12:17:44;9.23;;;7.90;;
4961;SDS011;2496;52.468;13.342;2023-04-21T12:20:12;18.27;;;7.97;;
4961;SDS011;2496;52.468;13.342;2023-04-21T12:22:43;13.07;;;7.90;;
4961;SDS011;2496;52.468;13.342;2023-04-21T12:25:10;11.23;;;6.90;;
4961;SDS011;2496;52.468;13.342;2023-04-21T12:27:46;10.40;;;7.17;;
4961;SDS011;2496;52.468;13.342;2023-04-21T12:30:13;12.90;;;7.67;;
4961;SDS011;2496;52.468;13.342;2023-04-21T12:32:41;9.03;;;7.20;;
4961;SDS011;2496;52.468;13.342;2023-04-21T12:35:08;11.30;;;7.90;;
4961;SDS011;2496;52.468;13.342;2023-04-21T12:37:35;7.97;;;7.17;;
4961;SDS011;2496;52.468;13.342;2023-04-21T12:40:04;10.80;;;6.93;;
4961;SDS011;2496;52.468;13.342;2023-04-21T12:42:33;8.43;;;6.97;;
4961;SDS011;2496;52.468;13.342;2023-04-21T12:44:59;10.83;;;7.10;;
4961;SDS011;2496;52.468;13.342;2023-04-21T12:47:27;10.50;;;6.90;;
4961;SDS011;2496;52.468;13.342;2023-04-21T12:49:54;12.63;;;7.50;;
4961;SDS011;2496;52.468;13.342;2023-04-21T12:52:21;9.13;;;7.20;;
4961;SDS011;2496;52.468;13.342;2023-04-21T12:54:48;15.10;;;8.37;;
4961;SDS011;2496;52.468;13.342;2023-04-21T12:57:16;7.30;;;6.27;;
4961;SDS011;2496;52.468;13.342;2023-04-21T12:59:43;10.50;;;8.00;;
4961;SDS011;2496;52.468;13.342;2023-04-21T13:02:11;10.37;;;7.57;;
4961;SDS011;2496;52.468;13.342;2023-04-21T13:04:38;12.20;;;6.83;;
4961;SDS011;2496;52.468;13.342;2023-04-21T13:07:06;10.53;;;7.10;;
4961;SDS011;2496;52.468;13.342;2023-04-21T13:09:33;9.57;;;8.03;;
4961;SDS011;2496;52.468;13.342;2023-04-21T13:12:00;13.80;;;6.60;;
4961;SDS011;2496;52.468;13.342;2023-04-21T13:14:28;12.00;;;7.63;;
4961;SDS011;2496;52.468;13.342;2023-04-21T13:16:55;8.87;;;6.83;;
4961;SDS011;2496;52.468;13.342;2023-04-21T13:19:22;7.33;;;6.40;;
4961;SDS011;2496;52.468;13.342;2023-04-21T13:21:49;9.93;;;7.00;;
4961;SDS011;2496;52.468;13.342;2023-04-21T13:24:16;8.83;;;6.90;;
4961;SDS011;2496;52.468;13.342;2023-04-21T13:26:43;7.50;;;6.57;;
4961;SDS011;2496;52.468;13.342;2023-04-21T13:29:10;10.87;;;6.83;;
4961;SDS011;2496;52.468;13.342;2023-04-21T13:31:39;8.70;;;7.77;;
4961;SDS011;2496;52.468;13.342;2023-04-21T13:34:06;11.20;;;7.40;;
4961;SDS011;2496;52.468;13.342;2023-04-21T13:36:33;9.80;;;6.87;;
4961;SDS011;2496;52.468;13.342;2023-04-21T13:39:00;8.23;;;6.43;;
4961;SDS011;2496;52.468;13.342;2023-04-21T13:41:28;14.37;;;7.20;;
4961;SDS011;2496;52.468;13.342;2023-04-21T13:43:55;12.30;;;7.13;;
4961;SDS011;2496;52.468;13.342;2023-04-21T13:46:22;8.47;;;7.37;;
4961;SDS011;2496;52.468;13.342;2023-04-21T13:48:51;11.90;;;6.93;;
4961;SDS011;2496;52.468;13.342;2023-04-21T13:51:19;9.57;;;6.93;;
4961;SDS011;2496;52.468;13.342;2023-04-21T13:53:46;8.10;;;6.70;;
4961;SDS011;2496;52.468;13.342;2023-04-21T13:56:13;11.37;;;6.70;;
4961;SDS011;2496;52.468;13.342;2023-04-21T13:58:40;8.43;;;6.00;;
4961;SDS011;2496;52.468;13.342;2023-04-21T14:01:07;7.40;;;6.60;;
4961;SDS011;2496;52.468;13.342;2023-04-21T14:03:34;10.83;;;6.40;;
4961;SDS011;2496;52.468;13.342;2023-04-21T14:06:03;9.73;;;6.70;;
4961;SDS011;2496;52.468;13.342;2023-04-21T14:08:30;9.77;;;6.20;;
4961;SDS011;2496;52.468;13.342;2023-04-21T14:10:57;13.93;;;6.40;;
4961;SDS011;2496;52.468;13.342;2023-04-21T14:13:25;6.93;;;6.03;;
4961;SDS011;2496;52.468;13.342;2023-04-21T14:15:53;8.37;;;6.60;;
4961;SDS011;2496;52.468;13.342;2023-04-21T14:18:20;9.73;;;6.87;;
4961;SDS011;2496;52.468;13.342;2023-04-21T14:20:47;11.87;;;6.93;;
4961;SDS011;2496;52.468;13.342;2023-04-21T14:23:15;11.97;;;7.23;;
4961;SDS011;2496;52.468;13.342;2023-04-21T14:25:42;14.40;;;5.93;;
4961;SDS011;2496;52.468;13.342;2023-04-21T14:28:09;8.93;;;6.40;;
4961;SDS011;2496;52.468;13.342;2023-04-21T14:30:36;9.00;;;6.57;;
4961;SDS011;2496;52.468;13.342;2023-04-21T14:33:04;7.50;;;6.67;;
4961;SDS011;2496;52.468;13.342;2023-04-21T14:35:31;11.13;;;6.23;;
4961;SDS011;2496;52.468;13.342;2023-04-21T14:37:58;7.60;;;6.00;;
4961;SDS011;2496;52.468;13.342;2023-04-21T14:40:26;13.17;;;7.10;;
4961;SDS011;2496;52.468;13.342;2023-04-21T14:42:53;9.03;;;6.17;;
4961;SDS011;2496;52.468;13.342;2023-04-21T14:45:20;7.47;;;6.27;;
4961;SDS011;2496;52.468;13.342;2023-04-21T14:47:47;7.00;;;6.10;;
4961;SDS011;2496;52.468;13.342;2023-04-21T14:50:14;9.07;;;6.53;;
4961;SDS011;2496;52.468;13.342;2023-04-21T14:52:41;9.70;;;6.50;;